This is the latest recevied weather packets stored in our database for station/object DC1MAK-13. If no packets are shown the sender has not sent any weather packets the latest 1 day(s).
| Time | Temp. | Humidity | Pressure | Rain* | Wind** | Luminosity | Snow |
|---|---|---|---|---|---|---|---|
| 1778000007 | 18.33° C | 60% | 977.6 hPa | - | 0 m/s | - | - |
| 1777999703 | 18.33° C | 58% | 977.6 hPa | - | 0 m/s | - | - |
| 1777999099 | 20° C | 53% | 977.6 hPa | - | 0 m/s | - | - |
| 1777998792 | 20° C | 50% | 977.6 hPa | - | 0 m/s | - | - |
| 1777998489 | 23.89° C | 43% | 977.6 hPa | - | 0 m/s | - | - |
| 1777998185 | 24.44° C | 41% | 977.6 hPa | - | 0 m/s | - | - |
| 1777997279 | 22.78° C | 47% | 977.6 hPa | - | 0 m/s | - | - |
| 1777996970 | 20.56° C | 55% | 977.7 hPa | - | 0 m/s | - | - |
| 1777996363 | 18.89° C | 61% | 977.6 hPa | - | 0 m/s | - | - |
| 1777995759 | 19.44° C | 58% | 977.6 hPa | - | 0 m/s | - | - |
| 1777995452 | 20° C | 58% | 977.7 hPa | - | 0 m/s | - | - |
| 1777995149 | 20° C | 60% | 977.7 hPa | - | 0 m/s | - | - |
| 1777994845 | 20.56° C | 59% | 977.8 hPa | - | 0 m/s | - | - |
| 1777994239 | 20.56° C | 60% | 977.6 hPa | - | 0 m/s | - | - |
| 1777993939 | 18.89° C | 65% | 977.5 hPa | - | 0 m/s | - | - |
| 1777993631 | 18.33° C | 68% | 977.6 hPa | - | 0 m/s | - | - |
| 1777993327 | 17.78° C | 69% | 977.7 hPa | - | 0 m/s | - | - |
| 1777993024 | 17.78° C | 70% | 977.8 hPa | - | 0 m/s | - | - |
| 1777992419 | 16.67° C | 73% | 977.9 hPa | - | 0 m/s | - | - |
| 1777992119 | 17.22° C | 72% | 977.9 hPa | - | 0 m/s | - | - |
| 1777991809 | 17.22° C | 73% | 977.9 hPa | - | 0 m/s | - | - |
| 1777991506 | 17.22° C | 74% | 978.1 hPa | - | 0 m/s | - | - |
| 1777991202 | 16.67° C | 78% | 978.2 hPa | - | 0 m/s | - | - |
| 1777990599 | 16.11° C | 79% | 978.4 hPa | - | 0 m/s | - | - |
| 1777990291 | 16.11° C | 80% | 978.4 hPa | - | 0 m/s | - | - |
* Rain since midnight (hover to see other rain measurements)
** Current wind speed in m/s (hover to see current wind gust speed)